Beryl Junction, Utah
Current Conditions -  °F | °C
As of 6:53 AM on Saturday 25 Oct 2014 (Local Time) from KCDC Reporting Station
Clear Clear  
Wind Chill: 45°   Ceiling: Unl
Heat Index: 47°   Visibility: 10mi
Dew Point: 33°   Wind: 5mph
Humidity: 59%   Direction: 220°SW
Pressure: 30.2"   Gusts: NA
Location:  38.0286°N, 113.572°W
Report Text: KCDC 251253Z AUTO 22004KT 10SM CLR 08/01 A3020 RMK AO2 SLP180 T00830006 TSNO
Loading
Personal Weather Stations






























Interactive Weather Map
Tropical Storm Tracking
New forecast layout! Learn more

10-Day Weather Forecast

Advertisements
Track Severe Weather on mobile